createdAt,value
2022-12-17T00:01:02.517Z,27.75
2022-12-17T00:03:51.169Z,28.67
2022-12-17T00:06:39.758Z,23.17
2022-12-17T00:09:25.031Z,21.33
2022-12-17T00:12:10.554Z,19.13
2022-12-17T00:14:56.926Z,21.30
2022-12-17T00:17:42.773Z,18.88
2022-12-17T00:20:31.194Z,23.23
2022-12-17T00:23:21.570Z,18.13
2022-12-17T00:26:14.294Z,15.20
2022-12-17T00:29:04.654Z,17.73
2022-12-17T00:31:49.779Z,14.05
2022-12-17T00:34:37.456Z,21.20
2022-12-17T00:37:22.917Z,26.70
2022-12-17T00:40:08.269Z,22.98
2022-12-17T00:42:56.385Z,27.08
2022-12-17T00:45:44.459Z,27.95
2022-12-17T00:48:31.985Z,27.60
2022-12-17T00:51:17.348Z,22.33
2022-12-17T00:54:05.709Z,18.58
2022-12-17T00:56:52.409Z,19.10
2022-12-17T00:59:38.322Z,21.63
2022-12-17T01:02:26.637Z,17.25
2022-12-17T01:05:14.122Z,19.85
2022-12-17T01:07:59.192Z,21.80
2022-12-17T01:10:44.833Z,20.77
2022-12-17T01:13:33.982Z,22.17
2022-12-17T01:16:33.103Z,19.10
2022-12-17T01:19:18.640Z,23.42
2022-12-17T01:22:04.261Z,21.08
2022-12-17T01:24:49.700Z,23.35
2022-12-17T01:27:37.376Z,24.77
2022-12-17T01:30:33.454Z,22.88
2022-12-17T01:33:23.777Z,20.40
2022-12-17T01:36:15.218Z,18.20
2022-12-17T01:39:00.896Z,14.07
2022-12-17T01:41:48.665Z,15.38
2022-12-17T01:45:11.446Z,16.27
2022-12-17T01:48:07.029Z,14.18
2022-12-17T01:51:00.744Z,15.52
2022-12-17T01:53:51.421Z,20.13
2022-12-17T01:56:36.616Z,14.98
2022-12-17T01:59:23.682Z,16.45
2022-12-17T02:02:12.134Z,20.27
2022-12-17T02:05:00.347Z,21.45
2022-12-17T02:08:02.348Z,16.83
2022-12-17T02:11:23.286Z,13.90
2022-12-17T02:14:41.102Z,13.18
2022-12-17T02:17:35.328Z,10.32
2022-12-17T02:20:42.406Z,16.80
2022-12-17T02:23:53.475Z,11.93
2022-12-17T02:27:07.524Z,13.05
2022-12-17T02:29:59.758Z,17.20
2022-12-17T02:32:50.850Z,15.48
2022-12-17T02:35:45.551Z,17.85
2022-12-17T02:38:39.918Z,15.88
2022-12-17T02:41:34.589Z,12.23
2022-12-17T02:44:25.715Z,14.90
2022-12-17T02:47:14.754Z,12.73
2022-12-17T02:50:00.029Z,15.23
2022-12-17T02:52:53.508Z,17.05
2022-12-17T02:55:39.253Z,18.23
2022-12-17T02:58:26.641Z,19.83
2022-12-17T03:01:12.317Z,17.52
2022-12-17T03:03:58.682Z,17.25
2022-12-17T03:06:48.214Z,17.02
2022-12-17T03:09:35.730Z,10.90
2022-12-17T03:12:21.593Z,23.30
2022-12-17T03:15:07.137Z,13.98
2022-12-17T03:17:52.418Z,14.23
2022-12-17T03:20:37.637Z,14.20
2022-12-17T03:23:25.973Z,13.13
2022-12-17T03:26:11.774Z,12.35
2022-12-17T03:29:08.197Z,10.95
2022-12-17T03:31:56.598Z,10.57
2022-12-17T03:34:42.015Z,17.70
2022-12-17T03:37:32.632Z,9.80
2022-12-17T03:40:20.334Z,18.90
2022-12-17T03:43:07.871Z,8.70
2022-12-17T03:45:53.283Z,18.20
2022-12-17T03:48:40.868Z,10.05
2022-12-17T03:51:25.802Z,16.50
2022-12-17T03:54:11.883Z,14.73
2022-12-17T03:56:57.261Z,16.77
2022-12-17T03:59:42.294Z,15.18
2022-12-17T04:02:27.449Z,12.82
2022-12-17T04:08:30.482Z,15.38
2022-12-17T04:11:18.620Z,23.75
2022-12-17T04:14:08.369Z,11.32
2022-12-17T04:16:53.578Z,11.05
2022-12-17T04:19:38.924Z,13.88
2022-12-17T04:22:25.269Z,15.55
2022-12-17T04:25:10.629Z,16.20
2022-12-17T04:27:56.035Z,27.35
2022-12-17T04:30:41.442Z,26.70
2022-12-17T04:33:26.637Z,26.58
2022-12-17T04:36:11.756Z,16.15
2022-12-17T04:38:57.173Z,32.30
2022-12-17T04:41:46.554Z,23.52
2022-12-17T04:44:32.007Z,22.75
2022-12-17T04:47:17.067Z,29.98
2022-12-17T04:50:02.964Z,28.45
2022-12-17T04:52:48.439Z,40.35
2022-12-17T04:55:36.368Z,42.55
2022-12-17T04:58:25.184Z,35.25
2022-12-17T05:01:11.970Z,26.67
2022-12-17T05:03:58.051Z,31.02
2022-12-17T05:06:43.554Z,25.80
2022-12-17T05:09:28.853Z,30.45
2022-12-17T05:12:16.306Z,39.40
2022-12-17T05:15:04.646Z,32.50
2022-12-17T05:17:49.618Z,36.97
2022-12-17T05:20:37.450Z,35.28
2022-12-17T05:23:26.067Z,27.45
2022-12-17T05:26:24.913Z,29.08
2022-12-17T05:29:15.409Z,32.90
2022-12-17T05:32:03.534Z,48.00
2022-12-17T05:34:48.776Z,39.25
2022-12-17T05:37:33.962Z,35.38
2022-12-17T05:40:22.446Z,24.27
2022-12-17T05:43:15.903Z,22.42
2022-12-17T05:46:04.621Z,27.02
2022-12-17T05:48:51.719Z,30.20
2022-12-17T05:51:39.046Z,29.38
2022-12-17T05:54:25.413Z,25.13
2022-12-17T05:57:11.794Z,24.88
2022-12-17T05:59:57.007Z,33.78
2022-12-17T06:02:42.159Z,23.58
2022-12-17T06:05:28.426Z,32.40
2022-12-17T06:08:21.780Z,27.85
2022-12-17T06:11:06.932Z,35.03
2022-12-17T06:13:52.537Z,25.77
2022-12-17T06:16:38.569Z,32.35
2022-12-17T06:19:30.134Z,26.35
2022-12-17T06:22:19.545Z,47.40
2022-12-17T06:25:05.044Z,48.42
2022-12-17T06:30:49.252Z,22.83
2022-12-17T06:33:35.167Z,32.10
2022-12-17T06:36:22.805Z,36.13
2022-12-17T06:39:08.453Z,30.38
2022-12-17T06:42:00.468Z,27.45
2022-12-17T06:44:49.501Z,29.10
2022-12-17T06:47:37.600Z,25.05
2022-12-17T06:50:23.305Z,36.08
2022-12-17T06:53:27.809Z,35.63
2022-12-17T06:56:16.630Z,23.13
2022-12-17T06:59:06.735Z,22.15
2022-12-17T07:01:52.289Z,24.35
2022-12-17T07:04:37.576Z,21.15
2022-12-17T07:07:22.526Z,17.40
2022-12-17T07:10:13.696Z,16.65
2022-12-17T07:12:59.782Z,23.65
2022-12-17T07:15:47.646Z,23.70
2022-12-17T07:18:34.597Z,21.70
2022-12-17T07:21:20.700Z,26.08
2022-12-17T07:24:06.220Z,17.55
2022-12-17T07:26:51.441Z,34.38
2022-12-17T07:29:36.524Z,23.10
2022-12-17T07:32:24.543Z,29.52
2022-12-17T07:35:09.923Z,25.98
2022-12-17T07:37:57.501Z,21.13
2022-12-17T07:40:42.874Z,17.75
2022-12-17T07:43:32.094Z,21.15
2022-12-17T07:46:17.388Z,20.95
2022-12-17T07:49:04.660Z,24.42
2022-12-17T07:51:50.170Z,21.85
2022-12-17T07:54:37.511Z,22.58
2022-12-17T07:57:22.712Z,40.92
2022-12-17T08:00:10.289Z,31.25
2022-12-17T08:02:58.147Z,19.92
2022-12-17T08:05:43.403Z,23.50
2022-12-17T08:08:30.367Z,21.08
2022-12-17T08:11:16.227Z,17.27
2022-12-17T08:14:01.908Z,21.33
2022-12-17T08:16:50.092Z,13.52
2022-12-17T08:19:39.845Z,23.70
2022-12-17T08:22:28.453Z,19.42
2022-12-17T08:25:16.351Z,15.38
2022-12-17T08:28:04.585Z,12.82
2022-12-17T08:31:00.953Z,18.00
2022-12-17T08:33:47.568Z,22.75
2022-12-17T08:36:32.804Z,18.50
2022-12-17T08:39:17.883Z,21.90
2022-12-17T08:42:04.618Z,18.95
2022-12-17T08:44:56.100Z,17.67
2022-12-17T08:50:38.874Z,16.98
2022-12-17T08:53:34.556Z,23.60
2022-12-17T08:56:23.019Z,16.42
2022-12-17T08:59:08.563Z,17.70
2022-12-17T09:01:54.002Z,22.90
2022-12-17T09:04:40.198Z,21.80
2022-12-17T09:07:25.606Z,25.90
2022-12-17T09:10:11.141Z,29.42
2022-12-17T09:13:01.165Z,25.58
2022-12-17T09:15:50.225Z,25.20
2022-12-17T09:18:39.959Z,22.90
2022-12-17T09:21:28.034Z,36.38
2022-12-17T09:24:13.204Z,49.97
2022-12-17T09:26:59.188Z,37.97
2022-12-17T09:29:50.113Z,22.38
2022-12-17T09:32:35.561Z,21.88
2022-12-17T09:35:24.081Z,30.85
2022-12-17T09:38:13.171Z,33.15
2022-12-17T09:41:08.731Z,31.63
2022-12-17T09:44:05.644Z,37.00
2022-12-17T09:47:02.699Z,31.38
2022-12-17T09:49:48.238Z,30.50
2022-12-17T09:52:46.817Z,26.05
2022-12-17T09:55:37.999Z,24.73
2022-12-17T09:58:47.092Z,22.20
2022-12-17T10:01:46.104Z,30.55
2022-12-17T10:04:36.567Z,26.02
2022-12-17T10:07:31.821Z,24.63
2022-12-17T10:10:20.776Z,33.13
2022-12-17T10:13:07.914Z,29.23
2022-12-17T10:15:55.679Z,30.10
2022-12-17T10:18:43.995Z,32.25
2022-12-17T10:21:30.416Z,30.27
2022-12-17T10:24:26.731Z,29.60
2022-12-17T10:27:12.624Z,33.85
2022-12-17T10:30:03.043Z,34.10
2022-12-17T10:32:50.940Z,28.75
2022-12-17T10:36:01.722Z,31.50
2022-12-17T10:38:49.194Z,34.15
2022-12-17T10:41:48.864Z,33.10
2022-12-17T10:44:43.666Z,29.23
2022-12-17T10:47:37.772Z,27.10
2022-12-17T10:50:31.837Z,32.75
2022-12-17T10:53:19.075Z,29.27
2022-12-17T10:56:07.145Z,29.70
2022-12-17T10:58:54.264Z,34.85
2022-12-17T11:01:45.979Z,32.33
2022-12-17T11:04:40.373Z,29.33
2022-12-17T11:07:32.398Z,30.15
2022-12-17T11:10:20.077Z,32.47
2022-12-17T11:13:21.158Z,32.22
2022-12-17T11:16:15.513Z,32.03
2022-12-17T11:19:16.587Z,34.33
2022-12-17T11:22:10.038Z,56.10
2022-12-17T11:25:20.523Z,31.90
2022-12-17T11:31:07.849Z,33.97
2022-12-17T11:34:03.935Z,34.83
2022-12-17T11:37:04.176Z,32.40
2022-12-17T11:40:08.527Z,34.72
2022-12-17T11:43:23.907Z,35.78
2022-12-17T11:46:33.637Z,40.00
2022-12-17T11:49:38.175Z,40.10
2022-12-17T11:52:59.023Z,38.20
2022-12-17T11:56:03.369Z,36.67
2022-12-17T11:59:08.352Z,30.50
2022-12-17T12:02:02.833Z,36.25
2022-12-17T12:04:48.138Z,34.97
2022-12-17T12:07:39.364Z,37.70
2022-12-17T12:10:34.641Z,38.50
2022-12-17T12:13:39.719Z,39.60
2022-12-17T12:16:44.094Z,33.83
2022-12-17T12:19:46.632Z,39.13
2022-12-17T12:22:31.748Z,37.87
2022-12-17T12:25:57.863Z,43.25
2022-12-17T12:28:59.585Z,43.55
2022-12-17T12:31:49.665Z,42.22
2022-12-17T12:37:31.409Z,36.95
2022-12-17T12:40:58.313Z,41.60
2022-12-17T12:43:53.970Z,47.67
2022-12-17T12:47:15.109Z,36.08
2022-12-17T12:50:08.569Z,43.15
2022-12-17T12:52:59.545Z,38.75
2022-12-17T12:55:56.549Z,46.20
2022-12-17T12:58:49.923Z,45.85
2022-12-17T13:01:38.917Z,47.95
2022-12-17T13:04:52.547Z,50.42
2022-12-17T13:09:54.637Z,49.38
2022-12-17T13:12:44.824Z,42.05
2022-12-17T13:15:26.842Z,39.47
2022-12-17T13:20:43.232Z,43.22
2022-12-17T13:23:31.057Z,41.05
2022-12-17T13:26:23.077Z,46.92
2022-12-17T13:28:54.917Z,37.75
2022-12-17T13:31:26.478Z,42.40
2022-12-17T13:34:26.292Z,38.27
2022-12-17T13:37:23.120Z,37.05
2022-12-17T13:39:59.796Z,42.80
2022-12-17T13:42:34.186Z,36.83
2022-12-17T13:45:01.651Z,44.67
2022-12-17T13:47:31.738Z,43.42
2022-12-17T13:50:33.232Z,45.15
2022-12-17T13:52:51.667Z,39.67
2022-12-17T13:55:23.486Z,44.17
2022-12-17T13:57:54.016Z,42.60
2022-12-17T14:00:29.268Z,38.90
2022-12-17T14:03:11.360Z,43.55
2022-12-17T14:05:43.659Z,44.03
2022-12-17T14:08:17.539Z,51.42
2022-12-17T14:11:14.597Z,46.38
2022-12-17T14:16:50.500Z,41.47
2022-12-17T14:19:20.306Z,43.45
2022-12-17T14:21:47.375Z,47.40
2022-12-17T14:24:15.283Z,43.95
2022-12-17T14:26:54.248Z,40.22
2022-12-17T14:29:29.584Z,44.13
2022-12-17T14:32:20.671Z,40.78
2022-12-17T14:34:47.548Z,41.17
2022-12-17T14:37:32.356Z,59.75
2022-12-17T14:40:04.499Z,43.30
2022-12-17T14:42:35.034Z,39.50
2022-12-17T14:45:13.479Z,41.72
2022-12-17T14:47:51.308Z,40.92
2022-12-17T14:50:18.466Z,38.20
2022-12-17T14:55:57.776Z,38.65
2022-12-17T14:58:32.906Z,35.63
2022-12-17T15:01:11.664Z,36.25
2022-12-17T15:03:41.046Z,43.05
2022-12-17T15:06:11.736Z,38.55
2022-12-17T15:08:44.377Z,41.38
2022-12-17T15:11:19.646Z,37.92
2022-12-17T15:13:56.257Z,35.70
2022-12-17T15:16:23.724Z,35.00
2022-12-17T15:18:50.378Z,47.30
2022-12-17T15:21:19.228Z,40.00
2022-12-17T15:23:47.098Z,38.67
2022-12-17T15:26:20.790Z,41.72
2022-12-17T15:28:59.411Z,41.25
2022-12-17T15:31:33.546Z,42.70
2022-12-17T15:34:02.493Z,41.50
2022-12-17T15:36:35.246Z,34.58
2022-12-17T15:44:20.793Z,36.25
2022-12-17T15:46:49.820Z,45.13
2022-12-17T15:49:16.480Z,47.22
2022-12-17T15:51:45.338Z,46.85
2022-12-17T15:54:12.027Z,41.75
2022-12-17T15:56:40.876Z,38.30
2022-12-17T15:59:07.858Z,41.10
2022-12-17T16:01:36.975Z,48.30
2022-12-17T16:04:04.200Z,45.47
2022-12-17T16:06:30.782Z,50.65
2022-12-17T16:08:58.532Z,44.47
2022-12-17T16:11:25.254Z,41.08
2022-12-17T16:13:55.811Z,51.03
2022-12-17T16:16:23.303Z,60.65
2022-12-17T16:18:53.151Z,52.28
2022-12-17T16:21:22.145Z,49.13
2022-12-17T16:23:50.681Z,57.97
2022-12-17T16:26:19.158Z,54.05
2022-12-17T16:28:47.930Z,55.45
2022-12-17T16:31:15.411Z,61.10
2022-12-17T16:33:47.364Z,54.17
2022-12-17T16:36:16.752Z,57.35
2022-12-17T16:38:48.231Z,57.13
2022-12-17T16:41:16.357Z,54.72
2022-12-17T16:43:43.655Z,47.72
2022-12-17T16:46:29.999Z,41.03
2022-12-17T16:48:58.663Z,41.97
2022-12-17T16:51:29.276Z,54.30
2022-12-17T16:53:58.497Z,46.15
2022-12-17T16:56:27.765Z,44.92
2022-12-17T16:58:57.470Z,51.28
2022-12-17T17:01:27.685Z,42.40
2022-12-17T17:03:57.373Z,46.25
2022-12-17T17:06:33.229Z,41.95
2022-12-17T17:09:03.920Z,48.78
2022-12-17T17:11:33.749Z,49.90
2022-12-17T17:14:00.884Z,40.45
2022-12-17T17:16:31.163Z,56.10
2022-12-17T17:18:58.145Z,62.70
2022-12-17T17:21:27.507Z,53.05
2022-12-17T17:24:22.194Z,51.83
2022-12-17T17:26:51.003Z,46.50
2022-12-17T17:29:19.102Z,49.00
2022-12-17T17:34:34.427Z,47.22
2022-12-17T17:37:05.952Z,53.00
2022-12-17T17:39:33.452Z,42.65
2022-12-17T17:42:02.943Z,48.97
2022-12-17T17:44:29.976Z,52.88
2022-12-17T17:46:56.797Z,45.30
2022-12-17T17:49:25.819Z,58.05
2022-12-17T17:52:08.830Z,48.35
2022-12-17T17:54:38.795Z,49.28
2022-12-17T17:57:06.761Z,51.40
2022-12-17T17:59:34.409Z,47.28
2022-12-17T18:08:27.831Z,43.50
2022-12-17T18:10:56.394Z,42.58
2022-12-17T18:13:41.655Z,40.08
2022-12-17T18:16:12.810Z,48.15
2022-12-17T18:18:40.312Z,46.13
2022-12-17T18:21:10.643Z,48.20
2022-12-17T18:23:37.891Z,49.50
2022-12-17T18:26:12.301Z,45.88
2022-12-17T18:28:42.093Z,51.20
2022-12-17T18:31:14.951Z,42.95
2022-12-17T18:33:49.927Z,50.58
2022-12-17T18:38:46.124Z,43.05
2022-12-17T18:41:36.430Z,58.55
2022-12-17T18:44:05.061Z,56.08
2022-12-17T18:46:33.456Z,58.35
2022-12-17T18:49:05.873Z,52.20
2022-12-17T18:51:37.286Z,63.85
2022-12-17T18:54:20.131Z,54.85
2022-12-17T18:59:45.051Z,62.08
2022-12-17T19:02:13.672Z,51.50
2022-12-17T19:04:41.178Z,50.92
2022-12-17T19:07:08.003Z,54.67
2022-12-17T19:09:35.177Z,48.22
2022-12-17T19:12:04.050Z,48.95
2022-12-17T19:14:30.992Z,61.03
2022-12-17T19:17:00.193Z,66.90
2022-12-17T19:19:29.531Z,63.35
2022-12-17T19:21:58.853Z,55.55
2022-12-17T19:24:25.697Z,66.57
2022-12-17T19:26:55.930Z,51.40
2022-12-17T19:29:26.820Z,40.38
2022-12-17T19:31:53.510Z,46.22
2022-12-17T19:34:20.144Z,42.35
2022-12-17T19:36:50.286Z,50.40
2022-12-17T19:39:19.852Z,52.67
2022-12-17T19:41:50.337Z,48.42
2022-12-17T19:44:22.880Z,48.30
2022-12-17T19:46:49.735Z,47.92
2022-12-17T19:49:17.648Z,49.03
2022-12-17T19:51:44.920Z,45.38
2022-12-17T19:54:15.391Z,49.63
2022-12-17T19:56:45.157Z,52.13
2022-12-17T19:59:12.621Z,51.47
2022-12-17T20:01:45.827Z,49.97
2022-12-17T20:04:14.140Z,38.33
2022-12-17T20:06:44.196Z,45.30
2022-12-17T20:09:11.859Z,44.83
2022-12-17T20:11:38.881Z,44.80
2022-12-17T20:14:07.662Z,41.20
2022-12-17T20:16:50.003Z,48.47
2022-12-17T20:19:22.009Z,34.30
2022-12-17T20:21:49.967Z,43.83
2022-12-17T20:24:17.141Z,43.33
2022-12-17T20:26:48.345Z,44.08
2022-12-17T20:29:17.389Z,37.50
2022-12-17T20:31:49.369Z,49.50
2022-12-17T20:34:21.517Z,53.22
2022-12-17T20:36:52.356Z,47.05
2022-12-17T20:39:25.938Z,45.30
2022-12-17T20:41:54.934Z,47.97
2022-12-17T20:44:21.638Z,45.90
2022-12-17T20:46:50.921Z,43.95
2022-12-17T20:49:21.269Z,57.35
2022-12-17T20:51:48.014Z,51.97
2022-12-17T20:54:14.958Z,51.80
2022-12-17T20:56:41.573Z,44.90
2022-12-17T20:59:15.027Z,41.47
2022-12-17T21:01:44.031Z,52.42
2022-12-17T21:04:15.035Z,41.10
2022-12-17T21:06:44.848Z,46.13
2022-12-17T21:09:15.073Z,41.83
2022-12-17T21:11:44.184Z,42.50
2022-12-17T21:14:13.713Z,78.53
2022-12-17T21:16:41.788Z,38.65
2022-12-17T21:19:11.970Z,42.85
2022-12-17T21:21:38.709Z,49.00
2022-12-17T21:24:09.093Z,63.85
2022-12-17T21:26:46.944Z,45.00
2022-12-17T21:29:18.196Z,60.33
2022-12-17T21:31:49.366Z,83.13
2022-12-17T21:34:24.660Z,64.45
2022-12-17T21:36:54.081Z,43.65
2022-12-17T21:39:21.191Z,54.35
2022-12-17T21:42:07.596Z,42.53
2022-12-17T21:44:36.980Z,37.90
2022-12-17T21:47:04.005Z,42.30
2022-12-17T21:49:32.843Z,38.17
2022-12-17T21:52:03.675Z,49.53
2022-12-17T21:54:32.820Z,47.17
2022-12-17T21:56:59.484Z,45.70
2022-12-17T21:59:30.908Z,48.75
2022-12-17T22:01:59.842Z,46.55
2022-12-17T22:04:26.889Z,46.85
2022-12-17T22:06:59.937Z,32.95
2022-12-17T22:09:43.135Z,41.17
2022-12-17T22:12:40.008Z,52.08
2022-12-17T22:15:10.188Z,47.92
2022-12-17T22:17:41.710Z,35.53
2022-12-17T22:20:09.504Z,36.58
2022-12-17T22:22:40.699Z,39.75
2022-12-17T22:25:09.606Z,30.02
2022-12-17T22:27:39.307Z,44.60
2022-12-17T22:30:30.449Z,41.38
2022-12-17T22:33:01.641Z,45.05
2022-12-17T22:37:36.236Z,36.65
2022-12-17T22:41:33.594Z,38.05
2022-12-17T22:44:38.489Z,49.67
2022-12-17T22:44:42.606Z,30.38
2022-12-17T22:46:57.154Z,37.25
2022-12-17T22:49:28.723Z,39.25
2022-12-17T22:51:59.442Z,30.00
2022-12-17T22:54:26.422Z,39.30
2022-12-17T22:57:35.812Z,48.90
2022-12-17T22:59:44.798Z,47.33
2022-12-17T23:02:11.611Z,47.00
2022-12-17T23:04:40.905Z,49.63
2022-12-17T23:07:08.137Z,51.83
2022-12-17T23:09:37.156Z,43.42
2022-12-17T23:18:01.294Z,46.17
2022-12-17T23:20:30.070Z,27.80
2022-12-17T23:22:56.905Z,23.45
2022-12-17T23:25:25.052Z,38.92
2022-12-17T23:27:52.328Z,37.33
2022-12-17T23:30:21.572Z,32.53
2022-12-17T23:32:50.088Z,31.27
2022-12-17T23:35:18.879Z,48.08
2022-12-17T23:37:48.830Z,39.28
2022-12-17T23:40:17.741Z,22.33
2022-12-17T23:42:44.512Z,41.42
2022-12-17T23:45:11.384Z,35.47
2022-12-17T23:47:40.659Z,44.72
2022-12-17T23:50:12.798Z,41.40
2022-12-17T23:52:41.774Z,45.55
2022-12-17T23:55:11.857Z,39.13
2022-12-17T23:57:39.284Z,42.17
